createdAt,value
2023-11-19T00:01:34.121Z,22.70
2023-11-19T00:06:37.206Z,22.20
2023-11-19T00:11:40.192Z,25.10
2023-11-19T00:16:43.151Z,26.70
2023-11-19T00:21:47.179Z,33.80
2023-11-19T00:26:51.441Z,26.80
2023-11-19T00:31:54.551Z,26.80
2023-11-19T00:36:57.614Z,28.30
2023-11-19T00:42:00.645Z,24.40
2023-11-19T00:47:03.987Z,23.00
2023-11-19T00:52:07.717Z,18.00
2023-11-19T00:57:10.852Z,20.80
2023-11-19T01:02:15.505Z,21.30
2023-11-19T01:07:18.638Z,23.30
2023-11-19T01:12:22.104Z,24.00
2023-11-19T01:17:25.084Z,22.70
2023-11-19T01:22:28.097Z,20.10
2023-11-19T01:27:31.145Z,23.10
2023-11-19T01:32:34.143Z,22.20
2023-11-19T01:37:37.782Z,21.90
2023-11-19T01:42:42.346Z,22.20
2023-11-19T01:47:45.613Z,21.70
2023-11-19T01:52:49.579Z,22.10
2023-11-19T01:57:54.847Z,20.80
2023-11-19T02:02:58.480Z,20.00
2023-11-19T02:08:02.869Z,19.70
2023-11-19T02:13:07.536Z,21.70
2023-11-19T02:18:29.395Z,19.60
2023-11-19T02:23:32.894Z,19.80
2023-11-19T02:28:38.320Z,16.50
2023-11-19T02:33:41.750Z,16.20
2023-11-19T02:38:44.776Z,18.90
2023-11-19T02:43:49.885Z,18.70
2023-11-19T02:48:53.214Z,21.90
2023-11-19T02:53:56.301Z,18.10
2023-11-19T02:58:59.602Z,18.10
2023-11-19T03:04:04.128Z,17.90
2023-11-19T03:09:11.717Z,15.60
2023-11-19T03:14:14.755Z,16.10
2023-11-19T03:19:25.898Z,16.60
2023-11-19T03:24:29.198Z,16.40
2023-11-19T03:29:32.208Z,16.30
2023-11-19T03:34:35.210Z,16.60
2023-11-19T03:39:38.623Z,18.40
2023-11-19T03:44:41.583Z,17.20
2023-11-19T03:49:49.921Z,18.30
2023-11-19T03:54:52.888Z,14.80
2023-11-19T03:59:56.846Z,16.50
2023-11-19T04:10:03.372Z,14.70
2023-11-19T04:15:07.997Z,13.70
2023-11-19T04:20:14.747Z,14.70
2023-11-19T04:25:18.981Z,16.10
2023-11-19T04:35:24.861Z,12.20
2023-11-19T04:40:27.884Z,15.30
2023-11-19T04:45:31.042Z,14.50
2023-11-19T04:50:34.023Z,15.10
2023-11-19T04:55:37.024Z,13.80
2023-11-19T05:00:40.055Z,12.10
2023-11-19T05:05:43.028Z,12.50
2023-11-19T05:10:46.054Z,14.70
2023-11-19T05:15:49.029Z,16.10
2023-11-19T05:20:52.009Z,16.20
2023-11-19T05:25:55.303Z,16.30
2023-11-19T05:30:58.849Z,16.80
2023-11-19T05:36:04.706Z,13.70
2023-11-19T05:41:07.782Z,15.90
2023-11-19T05:51:17.698Z,15.00
2023-11-19T05:56:23.126Z,13.20
2023-11-19T06:01:26.480Z,17.80
2023-11-19T06:06:30.666Z,19.40
2023-11-19T06:11:37.246Z,18.90
2023-11-19T06:16:41.595Z,18.80
2023-11-19T06:21:44.724Z,18.40
2023-11-19T06:26:47.698Z,15.90
2023-11-19T06:31:50.692Z,14.10
2023-11-19T06:36:54.311Z,14.20
2023-11-19T06:41:57.839Z,16.30
2023-11-19T06:47:00.809Z,21.60
2023-11-19T06:52:10.455Z,23.00
2023-11-19T06:57:13.647Z,21.30
2023-11-19T07:02:16.778Z,16.80
2023-11-19T07:07:20.057Z,15.50
2023-11-19T07:12:23.065Z,15.40
2023-11-19T07:17:26.301Z,14.90
2023-11-19T07:22:31.385Z,15.20
2023-11-19T07:27:40.539Z,18.90
2023-11-19T07:32:44.247Z,22.50
2023-11-19T07:37:49.172Z,17.10
2023-11-19T07:42:52.574Z,40.30
2023-11-19T07:47:56.083Z,288.30
2023-11-19T07:52:59.110Z,475.40
2023-11-19T07:58:02.488Z,94.20
2023-11-19T08:03:06.289Z,397.80
2023-11-19T08:08:09.636Z,320.40
2023-11-19T08:13:13.269Z,153.70
2023-11-19T08:18:16.328Z,254.50
2023-11-19T08:23:19.665Z,129.30
2023-11-19T08:28:22.626Z,68.60
2023-11-19T08:33:25.663Z,76.90
2023-11-19T08:38:32.169Z,48.00
2023-11-19T08:43:35.443Z,120.00
2023-11-19T08:48:39.532Z,39.80
2023-11-19T08:53:43.245Z,86.90
2023-11-19T08:58:46.239Z,59.10
2023-11-19T09:03:49.385Z,28.80
2023-11-19T09:08:52.558Z,34.40
2023-11-19T09:13:55.599Z,23.20
2023-11-19T09:19:00.541Z,55.40
2023-11-19T09:24:03.809Z,86.20
2023-11-19T09:29:06.798Z,151.20
2023-11-19T09:34:09.953Z,300.30
2023-11-19T09:39:19.167Z,59.40
2023-11-19T09:44:22.527Z,165.60
2023-11-19T09:54:34.876Z,200.00
2023-11-19T09:59:40.291Z,434.20
2023-11-19T10:04:54.462Z,449.30
2023-11-19T10:09:57.517Z,161.30
2023-11-19T10:15:00.966Z,282.10
2023-11-19T10:20:05.887Z,286.10
2023-11-19T10:25:30.288Z,186.80
2023-11-19T10:30:35.561Z,157.50
2023-11-19T10:36:03.376Z,383.60
2023-11-19T10:41:06.897Z,277.40
2023-11-19T10:46:15.440Z,101.10
2023-11-19T10:51:25.114Z,176.40
2023-11-19T10:56:33.231Z,273.20
2023-11-19T11:01:46.580Z,307.20
2023-11-19T11:06:51.432Z,227.70
2023-11-19T11:11:56.450Z,280.30
2023-11-19T11:17:04.320Z,477.90
2023-11-19T11:22:08.878Z,354.30
2023-11-19T11:27:36.295Z,458.00
2023-11-19T11:33:32.072Z,568.40
2023-11-19T11:38:41.144Z,372.30
2023-11-19T11:43:52.766Z,518.60
2023-11-19T11:48:57.611Z,118.20
2023-11-19T11:54:01.106Z,84.20
2023-11-19T11:59:04.172Z,242.20
2023-11-19T12:04:07.312Z,111.70
2023-11-19T12:09:10.533Z,218.70
2023-11-19T12:14:14.221Z,173.90
2023-11-19T12:19:18.292Z,295.30
2023-11-19T12:24:25.824Z,161.90
2023-11-19T12:29:28.870Z,176.80
2023-11-19T12:34:31.963Z,270.40
2023-11-19T12:39:35.310Z,284.60
2023-11-19T12:44:38.353Z,199.20
2023-11-19T12:49:41.618Z,188.70
2023-11-19T12:54:44.707Z,196.30
2023-11-19T13:00:00.402Z,109.70
2023-11-19T13:05:25.887Z,244.80
2023-11-19T13:10:29.516Z,276.00
2023-11-19T13:15:34.423Z,497.00
2023-11-19T13:20:37.473Z,419.70
2023-11-19T13:25:40.465Z,274.00
2023-11-19T13:30:43.464Z,215.90
2023-11-19T13:35:46.508Z,307.70
2023-11-19T13:40:49.514Z,250.20
2023-11-19T13:45:54.489Z,553.10
2023-11-19T13:50:57.699Z,294.60
2023-11-19T13:56:01.267Z,129.80
2023-11-19T14:01:04.620Z,187.90
2023-11-19T14:06:09.728Z,245.00
2023-11-19T14:11:12.958Z,127.90
2023-11-19T14:16:18.629Z,226.50
2023-11-19T14:21:22.527Z,89.40
2023-11-19T14:31:34.694Z,76.30
2023-11-19T14:36:37.716Z,168.50
2023-11-19T14:41:40.816Z,99.00
2023-11-19T14:46:44.125Z,165.80
2023-11-19T14:51:49.257Z,86.00
2023-11-19T14:56:53.228Z,108.70
2023-11-19T15:01:56.424Z,82.50
2023-11-19T15:07:00.863Z,91.40
2023-11-19T15:12:06.832Z,126.30
2023-11-19T15:17:09.867Z,75.50
2023-11-19T15:22:13.684Z,43.10
2023-11-19T15:27:17.053Z,45.20
2023-11-19T15:32:20.548Z,503.40
2023-11-19T15:37:23.619Z,210.90
2023-11-19T15:42:26.621Z,156.20
2023-11-19T15:47:30.343Z,220.80
2023-11-19T15:52:33.488Z,188.40
2023-11-19T15:57:36.987Z,146.60
2023-11-19T16:02:40.774Z,123.60
2023-11-19T16:07:44.041Z,130.80
2023-11-19T16:12:47.709Z,220.80
2023-11-19T16:17:50.973Z,108.70
2023-11-19T16:22:54.221Z,231.20
2023-11-19T16:27:57.495Z,153.30
2023-11-19T16:33:01.118Z,194.10
2023-11-19T16:38:05.092Z,116.20
2023-11-19T16:43:08.192Z,103.70
2023-11-19T16:48:11.279Z,138.70
2023-11-19T16:53:14.461Z,291.10
2023-11-19T16:58:17.539Z,146.50
2023-11-19T17:03:22.046Z,100.40
2023-11-19T17:08:26.523Z,80.40
2023-11-19T17:13:29.700Z,173.10
2023-11-19T17:18:32.794Z,80.30
2023-11-19T17:23:35.985Z,60.40
2023-11-19T17:28:39.018Z,160.70
2023-11-19T17:33:42.356Z,94.10
2023-11-19T17:38:45.434Z,68.90
2023-11-19T17:43:49.963Z,52.60
2023-11-19T17:48:53.340Z,172.20
2023-11-19T17:53:56.394Z,146.60
2023-11-19T17:58:59.467Z,106.90
2023-11-19T18:04:02.592Z,129.40
2023-11-19T18:09:07.551Z,99.40
2023-11-19T18:14:12.548Z,68.80
2023-11-19T18:19:16.334Z,56.80
2023-11-19T18:24:19.406Z,54.80
2023-11-19T18:29:22.522Z,47.20
2023-11-19T18:34:25.977Z,35.50
2023-11-19T18:39:29.088Z,41.00
2023-11-19T18:44:33.617Z,62.30
2023-11-19T18:49:37.415Z,38.90
2023-11-19T18:54:40.400Z,75.00
2023-11-19T18:59:43.475Z,147.20
2023-11-19T19:04:46.726Z,52.00
2023-11-19T19:09:54.145Z,71.20
2023-11-19T19:15:16.512Z,120.00
2023-11-19T19:20:20.490Z,111.50
2023-11-19T19:25:26.610Z,109.30
2023-11-19T19:30:29.939Z,45.80
2023-11-19T19:35:33.337Z,49.30
2023-11-19T19:40:37.128Z,39.00
2023-11-19T19:45:40.198Z,64.00
2023-11-19T19:50:43.310Z,112.40
2023-11-19T19:55:46.499Z,47.40
2023-11-19T20:00:49.692Z,527.90
2023-11-19T20:05:56.529Z,73.00
2023-11-19T20:10:59.805Z,106.80
2023-11-19T20:16:03.679Z,38.80
2023-11-19T20:21:10.905Z,22.40
2023-11-19T20:26:19.240Z,50.30
2023-11-19T20:31:22.338Z,47.50
2023-11-19T20:36:25.473Z,53.10
2023-11-19T20:41:29.808Z,33.00
2023-11-19T20:46:32.809Z,55.80
2023-11-19T20:51:40.615Z,616.90
2023-11-19T20:56:44.483Z,222.10
2023-11-19T21:01:47.567Z,438.90
2023-11-19T21:11:57.846Z,169.80
2023-11-19T21:17:01.353Z,262.00
2023-11-19T21:22:05.727Z,219.30
2023-11-19T21:27:09.202Z,130.00
2023-11-19T21:32:12.874Z,51.10
2023-11-19T21:37:16.157Z,42.00
2023-11-19T21:42:22.592Z,68.10
2023-11-19T21:47:25.825Z,245.30
2023-11-19T21:52:29.141Z,282.60
2023-11-19T21:57:32.344Z,115.20
2023-11-19T22:02:35.591Z,149.20
2023-11-19T22:07:39.145Z,161.10
2023-11-19T22:12:42.374Z,144.70
2023-11-19T22:17:45.537Z,96.80
2023-11-19T22:22:48.987Z,165.10
2023-11-19T22:27:52.943Z,100.40
2023-11-19T22:37:59.282Z,41.10
2023-11-19T22:43:02.457Z,157.20
2023-11-19T22:48:05.740Z,91.90
2023-11-19T22:53:08.813Z,69.00
2023-11-19T22:58:12.363Z,114.20
2023-11-19T23:03:15.868Z,64.70
2023-11-19T23:08:19.038Z,81.40
2023-11-19T23:13:22.143Z,83.70
2023-11-19T23:18:26.743Z,88.00
2023-11-19T23:23:29.757Z,48.90
2023-11-19T23:28:32.719Z,51.50
2023-11-19T23:33:35.789Z,117.30
2023-11-19T23:38:38.820Z,81.40
2023-11-19T23:43:41.821Z,63.70
2023-11-19T23:53:51.143Z,71.70
2023-11-19T23:58:55.127Z,46.50
